Time,TemperatureF,DewpointF,PressureIn,WindDirection,WindDirectionDegrees,WindSpeedMPH,WindSpeedGustMPH,Humidity,HourlyPrecipIn,Conditions,Clouds,dailyrainin,SoftwareType,DateUTC
2013-03-08 00:01:00,35.0,29.0,30.12,ESE,119,7.0,9.0,79,0.00,,,0.00,,2013-03-08 06:01:00,
2013-03-08 00:11:00,35.0,29.0,30.12,ESE,119,7.0,9.0,79,0.00,,,0.00,,2013-03-08 06:11:00,
2013-03-08 00:21:00,35.0,29.0,30.12,ESE,111,7.0,9.0,79,0.00,,,0.00,,2013-03-08 06:21:00,
2013-03-08 00:32:00,35.0,29.0,30.11,ESE,119,7.0,10.0,78,0.00,,,0.00,,2013-03-08 06:32:00,
2013-03-08 00:42:00,35.0,29.0,30.11,ESE,119,7.0,10.0,78,0.00,,,0.00,,2013-03-08 06:42:00,
2013-03-08 00:52:00,36.0,29.0,30.11,SE,125,8.0,11.0,77,0.00,,,0.00,,2013-03-08 06:52:00,
2013-03-08 01:01:00,36.0,29.0,30.11,ESE,111,6.0,10.0,76,0.00,,,0.00,,2013-03-08 07:01:00,
2013-03-08 01:11:00,36.0,29.0,30.11,ESE,111,6.0,10.0,76,0.00,,,0.00,,2013-03-08 07:11:00,
2013-03-08 01:22:00,36.0,29.0,30.12,ESE,115,4.0,7.0,77,0.00,,,0.00,,2013-03-08 07:22:00,
2013-03-08 01:31:00,36.0,29.0,30.12,SE,125,5.0,8.0,76,0.00,,,0.00,,2013-03-08 07:31:00,
2013-03-08 01:42:00,36.0,29.0,30.12,SE,125,5.0,8.0,76,0.00,,,0.00,,2013-03-08 07:42:00,
2013-03-08 01:52:00,36.0,29.0,30.11,ESE,123,4.0,7.0,76,0.00,,,0.00,,2013-03-08 07:52:00,
2013-03-08 02:01:00,35.0,29.0,30.12,ESE,113,3.0,6.0,77,0.00,,,0.00,,2013-03-08 08:01:00,
2013-03-08 02:11:00,35.0,29.0,30.12,ESE,113,3.0,6.0,77,0.00,,,0.00,,2013-03-08 08:11:00,
2013-03-08 02:21:00,35.0,29.0,30.12,ESE,109,3.0,4.0,77,0.00,,,0.00,,2013-03-08 08:21:00,
2013-03-08 02:31:00,35.0,29.0,30.12,ESE,107,2.0,5.0,77,0.00,,,0.00,,2013-03-08 08:31:00,
2013-03-08 02:41:00,35.0,29.0,30.12,ESE,107,2.0,5.0,77,0.00,,,0.00,,2013-03-08 08:41:00,
2013-03-08 02:52:00,34.0,28.0,30.12,ESE,109,2.0,5.0,78,0.00,,,0.00,,2013-03-08 08:52:00,
2013-03-08 03:03:00,34.0,28.0,30.11,ESE,113,2.0,4.0,78,0.00,,,0.00,,2013-03-08 09:03:00,
2013-03-08 03:11:00,34.0,28.0,30.11,ESE,113,2.0,4.0,78,0.00,,,0.00,,2013-03-08 09:11:00,
2013-03-08 03:21:00,33.0,27.0,30.10,East,98,3.0,5.0,79,0.00,,,0.00,,2013-03-08 09:21:00,
2013-03-08 03:32:00,33.0,28.0,30.09,East,92,3.0,6.0,81,0.00,,,0.00,,2013-03-08 09:32:00,
2013-03-08 03:42:00,33.0,28.0,30.09,East,92,3.0,6.0,81,0.00,,,0.00,,2013-03-08 09:42:00,
2013-03-08 03:52:00,32.0,27.0,30.09,ESE,107,4.0,5.0,82,0.00,,,0.00,,2013-03-08 09:52:00,
2013-03-08 04:01:00,33.0,28.0,30.09,ESE,119,5.0,7.0,82,0.00,,,0.00,,2013-03-08 10:01:00,
2013-03-08 04:11:00,33.0,28.0,30.09,ESE,119,5.0,7.0,82,0.00,,,0.00,,2013-03-08 10:11:00,
2013-03-08 04:21:00,33.0,28.0,30.08,East,100,4.0,6.0,81,0.00,,,0.00,,2013-03-08 10:21:00,
2013-03-08 04:31:00,34.0,29.0,30.08,ESE,106,5.0,8.0,81,0.00,,,0.00,,2013-03-08 10:31:00,
2013-03-08 04:41:00,34.0,29.0,30.08,ESE,106,5.0,8.0,81,0.00,,,0.00,,2013-03-08 10:41:00,
2013-03-08 04:52:00,36.0,30.0,30.08,SE,128,7.0,9.0,79,0.00,,,0.00,,2013-03-08 10:52:00,
2013-03-08 05:01:00,36.0,29.0,30.08,ESE,119,6.0,8.0,77,0.00,,,0.00,,2013-03-08 11:01:00,
2013-03-08 05:11:00,36.0,29.0,30.08,ESE,119,6.0,8.0,77,0.00,,,0.00,,2013-03-08 11:11:00,
2013-03-08 05:21:00,36.0,30.0,30.09,ESE,112,6.0,9.0,78,0.00,,,0.00,,2013-03-08 11:21:00,
2013-03-08 05:32:00,36.0,29.0,30.09,ESE,112,6.0,9.0,77,0.00,,,0.00,,2013-03-08 11:32:00,
2013-03-08 05:42:00,36.0,29.0,30.09,ESE,112,6.0,9.0,77,0.00,,,0.00,,2013-03-08 11:42:00,
2013-03-08 05:52:00,36.0,30.0,30.09,ESE,111,6.0,9.0,78,0.00,,,0.00,,2013-03-08 11:52:00,
2013-03-08 06:01:00,36.0,30.0,30.09,ESE,105,7.0,9.0,78,0.00,,,0.00,,2013-03-08 12:01:00,
2013-03-08 06:11:00,36.0,30.0,30.09,ESE,105,7.0,9.0,78,0.00,,,0.00,,2013-03-08 12:11:00,
2013-03-08 06:22:00,36.0,30.0,30.09,ESE,117,4.0,7.0,78,0.00,,,0.00,,2013-03-08 12:22:00,
2013-03-08 06:32:00,36.0,30.0,30.09,SE,126,4.0,7.0,78,0.00,,,0.00,,2013-03-08 12:32:00,
2013-03-08 06:43:00,36.0,30.0,30.09,SE,126,4.0,7.0,78,0.00,,,0.00,,2013-03-08 12:43:00,
2013-03-08 06:53:00,37.0,31.0,30.09,ESE,121,6.0,10.0,78,0.00,,,0.00,,2013-03-08 12:53:00,
2013-03-08 07:01:00,37.0,31.0,30.08,SE,126,6.0,8.0,78,0.00,,,0.00,,2013-03-08 13:01:00,
2013-03-08 07:11:00,37.0,31.0,30.08,SE,126,6.0,8.0,78,0.00,,,0.00,,2013-03-08 13:11:00,
2013-03-08 07:21:00,37.0,31.0,30.08,SE,128,6.0,8.0,78,0.00,,,0.00,,2013-03-08 13:21:00,
2013-03-08 07:32:00,37.0,31.0,30.08,SE,126,6.0,10.0,78,0.00,,,0.00,,2013-03-08 13:32:00,
2013-03-08 07:42:00,37.0,31.0,30.08,SE,126,6.0,10.0,78,0.00,,,0.00,,2013-03-08 13:42:00,
2013-03-08 07:52:00,37.0,31.0,30.08,SE,140,7.0,10.0,78,0.00,,,0.00,,2013-03-08 13:52:00,
2013-03-08 08:02:00,39.0,32.0,30.08,ESE,123,7.0,11.0,77,0.00,,,0.00,,2013-03-08 14:02:00,
2013-03-08 08:11:00,39.0,32.0,30.08,ESE,123,7.0,11.0,77,0.00,,,0.00,,2013-03-08 14:11:00,
2013-03-08 08:22:00,40.0,33.0,30.09,ESE,117,9.0,12.0,75,0.00,,,0.00,,2013-03-08 14:22:00,
2013-03-08 08:32:00,41.0,33.0,30.08,SE,124,10.0,14.0,72,0.00,,,0.00,,2013-03-08 14:32:00,
2013-03-08 08:42:00,41.0,33.0,30.08,SE,124,10.0,14.0,72,0.00,,,0.00,,2013-03-08 14:42:00,
2013-03-08 08:52:00,43.0,34.0,30.09,SSE,150,11.0,19.0,69,0.00,,,0.00,,2013-03-08 14:52:00,
2013-03-08 09:02:00,45.0,34.0,30.08,SE,141,10.0,18.0,66,0.00,,,0.00,,2013-03-08 15:02:00,
2013-03-08 09:11:00,45.0,34.0,30.08,SE,138,9.0,18.0,64,0.00,,,0.00,,2013-03-08 15:11:00,
2013-03-08 09:22:00,45.0,34.0,30.08,SE,138,9.0,18.0,64,0.00,,,0.00,,2013-03-08 15:22:00,
2013-03-08 09:32:00,46.0,34.0,30.08,SE,144,9.0,19.0,63,0.00,,,0.00,,2013-03-08 15:32:00,
2013-03-08 09:42:00,46.0,34.0,30.08,SE,144,9.0,19.0,63,0.00,,,0.00,,2013-03-08 15:42:00,
2013-03-08 09:53:00,46.0,34.0,30.09,South,171,12.0,19.0,62,0.00,,,0.00,,2013-03-08 15:53:00,
2013-03-08 10:01:00,46.0,34.0,30.09,SSE,147,10.0,15.0,63,0.00,,,0.00,,2013-03-08 16:01:00,
2013-03-08 10:11:00,46.0,34.0,30.09,SSE,147,10.0,15.0,63,0.00,,,0.00,,2013-03-08 16:11:00,
2013-03-08 10:22:00,49.0,36.0,30.09,South,171,12.0,18.0,60,0.00,,,0.00,,2013-03-08 16:22:00,
2013-03-08 10:32:00,52.0,37.0,30.08,SSE,163,13.0,20.0,56,0.00,,,0.00,,2013-03-08 16:32:00,
2013-03-08 10:42:00,52.0,37.0,30.08,SSE,163,13.0,20.0,56,0.00,,,0.00,,2013-03-08 16:42:00,
2013-03-08 10:52:00,55.0,38.0,30.08,South,189,11.0,21.0,52,0.00,,,0.00,,2013-03-08 16:52:00,
2013-03-08 11:02:00,53.0,37.0,30.07,South,182,13.0,23.0,55,0.00,,,0.00,,2013-03-08 17:02:00,
2013-03-08 11:11:00,53.0,37.0,30.07,South,182,13.0,23.0,55,0.00,,,0.00,,2013-03-08 17:11:00,
2013-03-08 11:21:00,54.0,38.0,30.07,SSE,163,14.0,21.0,55,0.00,,,0.00,,2013-03-08 17:21:00,
2013-03-08 11:32:00,55.0,38.0,30.07,SSE,153,13.0,20.0,53,0.00,,,0.00,,2013-03-08 17:32:00,
2013-03-08 11:42:00,55.0,38.0,30.07,SSE,153,13.0,20.0,53,0.00,,,0.00,,2013-03-08 17:42:00,
2013-03-08 11:52:00,57.0,40.0,30.06,SSE,153,12.0,19.0,52,0.00,,,0.00,,2013-03-08 17:52:00,
2013-03-08 12:02:00,58.0,40.0,30.06,SSE,163,12.0,18.0,52,0.00,,,0.00,,2013-03-08 18:02:00,
2013-03-08 12:11:00,58.0,40.0,30.06,SSE,163,12.0,18.0,52,0.00,,,0.00,,2013-03-08 18:11:00,
2013-03-08 12:21:00,59.0,40.0,30.06,SE,141,11.0,18.0,50,0.00,,,0.00,,2013-03-08 18:21:00,
2013-03-08 12:32:00,60.0,42.0,30.06,South,169,10.0,19.0,51,0.00,,,0.00,,2013-03-08 18:32:00,
2013-03-08 12:42:00,60.0,42.0,30.06,South,169,10.0,19.0,51,0.00,,,0.00,,2013-03-08 18:42:00,
2013-03-08 12:52:00,60.0,42.0,30.04,SSE,164,13.0,21.0,51,0.00,,,0.00,,2013-03-08 18:52:00,
2013-03-08 13:01:00,60.0,42.0,30.03,SSE,164,10.0,19.0,52,0.00,,,0.00,,2013-03-08 19:01:00,
2013-03-08 13:11:00,60.0,42.0,30.03,SSE,164,10.0,19.0,52,0.00,,,0.00,,2013-03-08 19:11:00,
2013-03-08 13:21:00,61.0,42.0,30.02,SE,136,11.0,16.0,50,0.00,,,0.00,,2013-03-08 19:21:00,
2013-03-08 13:32:00,63.0,43.0,30.01,SE,133,9.0,14.0,48,0.00,,,0.00,,2013-03-08 19:32:00,
2013-03-08 13:41:00,63.0,43.0,30.01,SE,133,9.0,14.0,48,0.00,,,0.00,,2013-03-08 19:41:00,
2013-03-08 13:52:00,64.0,45.0,30.00,South,179,15.0,22.0,51,0.00,,,0.00,,2013-03-08 19:52:00,
2013-03-08 14:01:00,63.0,46.0,29.99,South,173,12.0,20.0,53,0.00,,,0.00,,2013-03-08 20:01:00,
2013-03-08 14:11:00,63.0,46.0,29.99,South,173,12.0,20.0,53,0.00,,,0.00,,2013-03-08 20:11:00,
2013-03-08 14:21:00,62.0,45.0,29.98,SSW,212,11.0,19.0,53,0.00,,,0.00,,2013-03-08 20:21:00,
2013-03-08 14:32:00,62.0,45.0,29.98,SE,131,11.0,19.0,53,0.00,,,0.00,,2013-03-08 20:32:00,
2013-03-08 14:42:00,62.0,45.0,29.98,SE,131,11.0,19.0,53,0.00,,,0.00,,2013-03-08 20:42:00,
2013-03-08 14:53:00,62.0,44.0,29.97,SSE,157,12.0,20.0,52,0.00,,,0.00,,2013-03-08 20:53:00,
2013-03-08 15:02:00,62.0,45.0,29.96,SE,134,14.0,20.0,53,0.00,,,0.00,,2013-03-08 21:02:00,
2013-03-08 15:11:00,62.0,45.0,29.96,SE,134,14.0,20.0,53,0.00,,,0.00,,2013-03-08 21:11:00,
2013-03-08 15:21:00,62.0,45.0,29.96,SE,134,13.0,19.0,53,0.00,,,0.00,,2013-03-08 21:21:00,
2013-03-08 15:32:00,61.0,45.0,29.96,SE,140,13.0,21.0,55,0.00,,,0.00,,2013-03-08 21:32:00,
2013-03-08 15:42:00,61.0,45.0,29.96,SE,140,13.0,21.0,55,0.00,,,0.00,,2013-03-08 21:42:00,
2013-03-08 15:52:00,61.0,45.0,29.96,SE,142,13.0,20.0,56,0.00,,,0.00,,2013-03-08 21:52:00,
2013-03-08 16:01:00,61.0,46.0,29.95,SSE,147,15.0,23.0,57,0.00,,,0.00,,2013-03-08 22:01:00,
2013-03-08 16:11:00,61.0,46.0,29.95,SSE,147,15.0,23.0,57,0.00,,,0.00,,2013-03-08 22:11:00,
2013-03-08 16:22:00,60.0,45.0,29.94,SSE,149,12.0,25.0,58,0.00,,,0.00,,2013-03-08 22:22:00,
2013-03-08 16:32:00,60.0,45.0,29.94,SSE,147,18.0,26.0,57,0.00,,,0.00,,2013-03-08 22:32:00,
2013-03-08 16:42:00,60.0,45.0,29.94,SSE,147,18.0,26.0,57,0.00,,,0.00,,2013-03-08 22:42:00,
2013-03-08 16:52:00,60.0,46.0,29.93,SSE,155,12.0,23.0,59,0.00,,,0.00,,2013-03-08 22:52:00,
2013-03-08 17:01:00,59.0,45.0,29.93,SE,143,12.0,25.0,60,0.00,,,0.00,,2013-03-08 23:01:00,
2013-03-08 17:11:00,59.0,45.0,29.93,SE,143,12.0,25.0,60,0.00,,,0.00,,2013-03-08 23:11:00,
2013-03-08 17:21:00,59.0,46.0,29.94,SE,125,9.0,19.0,62,0.00,,,0.00,,2013-03-08 23:21:00,
2013-03-08 17:32:00,59.0,46.0,29.93,SSE,161,14.0,21.0,63,0.00,,,0.00,,2013-03-08 23:32:00,
2013-03-08 17:42:00,59.0,46.0,29.93,SSE,161,14.0,21.0,63,0.00,,,0.00,,2013-03-08 23:42:00,
2013-03-08 17:53:00,58.0,46.0,29.93,SE,128,11.0,22.0,64,0.00,,,0.00,,2013-03-08 23:53:00,
2013-03-08 18:02:00,58.0,46.0,29.93,SSE,150,11.0,19.0,65,0.00,,,0.00,,2013-03-09 00:02:00,
2013-03-08 18:11:00,58.0,46.0,29.93,SSE,150,11.0,19.0,65,0.00,,,0.00,,2013-03-09 00:11:00,
2013-03-08 18:22:00,58.0,47.0,29.93,SE,141,10.0,18.0,66,0.00,,,0.00,,2013-03-09 00:22:00,
2013-03-08 18:32:00,58.0,47.0,29.92,ESE,119,10.0,18.0,67,0.00,,,0.00,,2013-03-09 00:32:00,
2013-03-08 18:42:00,58.0,47.0,29.92,ESE,119,10.0,18.0,67,0.00,,,0.00,,2013-03-09 00:42:00,
2013-03-08 18:52:00,58.0,48.0,29.93,SE,136,13.0,21.0,70,0.00,,,0.00,,2013-03-09 00:52:00,
2013-03-08 19:01:00,57.0,48.0,29.92,SSE,152,8.0,18.0,71,0.00,,,0.00,,2013-03-09 01:01:00,
2013-03-08 19:12:00,57.0,48.0,29.93,SSE,153,11.0,22.0,71,0.00,,,0.00,,2013-03-09 01:12:00,
2013-03-08 19:21:00,57.0,48.0,29.93,SSE,153,11.0,22.0,71,0.00,,,0.00,,2013-03-09 01:21:00,
2013-03-08 19:32:00,56.0,47.0,29.93,SSE,151,15.0,22.0,72,0.00,,,0.00,,2013-03-09 01:32:00,
2013-03-08 19:42:00,56.0,47.0,29.93,SSE,151,15.0,22.0,72,0.00,,,0.00,,2013-03-09 01:42:00,
2013-03-08 19:52:00,56.0,48.0,29.93,SE,138,12.0,18.0,74,0.00,,,0.00,,2013-03-09 01:52:00,
2013-03-08 20:01:00,55.0,48.0,29.93,SE,136,17.0,25.0,76,0.00,,,0.00,,2013-03-09 02:01:00,
2013-03-08 20:11:00,55.0,48.0,29.93,SE,136,17.0,25.0,76,0.00,,,0.00,,2013-03-09 02:11:00,
2013-03-08 20:21:00,54.0,47.0,29.93,SSE,159,16.0,23.0,77,0.00,,,0.00,,2013-03-09 02:21:00,
2013-03-08 20:31:00,53.0,47.0,29.93,SSE,158,16.0,22.0,79,0.00,,,0.00,,2013-03-09 02:31:00,
2013-03-08 20:41:00,52.0,46.0,29.94,SSE,163,14.0,24.0,80,0.00,,,0.00,,2013-03-09 02:41:00,
2013-03-08 20:51:00,52.0,46.0,29.94,SSE,163,14.0,24.0,80,0.00,,,0.00,,2013-03-09 02:51:00,
2013-03-08 21:01:00,52.0,47.0,29.94,South,173,17.0,24.0,82,0.00,,,0.00,,2013-03-09 03:01:00,
2013-03-08 21:11:00,52.0,47.0,29.94,South,173,17.0,24.0,82,0.00,,,0.00,,2013-03-09 03:11:00,
2013-03-08 21:21:00,51.0,46.0,29.94,SSE,159,13.0,21.0,84,0.00,,,0.00,,2013-03-09 03:21:00,
2013-03-08 21:31:00,51.0,46.0,29.93,South,175,11.0,22.0,84,0.00,,,0.00,,2013-03-09 03:31:00,
2013-03-08 21:41:00,51.0,46.0,29.93,South,175,11.0,22.0,84,0.00,,,0.00,,2013-03-09 03:41:00,
2013-03-08 21:52:00,51.0,46.0,29.93,SE,144,11.0,22.0,84,0.00,,,0.00,,2013-03-09 03:52:00,
2013-03-08 22:01:00,50.0,46.0,29.92,SE,139,10.0,15.0,85,0.00,,,0.00,,2013-03-09 04:01:00,
2013-03-08 22:11:00,50.0,46.0,29.92,SE,139,10.0,15.0,85,0.00,,,0.00,,2013-03-09 04:11:00,
2013-03-08 22:22:00,51.0,46.0,29.93,SSE,155,12.0,18.0,84,0.00,,,0.00,,2013-03-09 04:22:00,
2013-03-08 22:32:00,51.0,46.0,29.92,SSE,154,9.0,19.0,83,0.00,,,0.00,,2013-03-09 04:32:00,
2013-03-08 22:41:00,51.0,46.0,29.92,SSE,154,9.0,19.0,83,0.00,,,0.00,,2013-03-09 04:41:00,
2013-03-08 22:52:00,51.0,46.0,29.92,SSE,155,9.0,12.0,83,0.00,,,0.00,,2013-03-09 04:52:00,
2013-03-08 23:02:00,51.0,45.0,29.91,SSE,153,8.0,14.0,81,0.00,,,0.00,,2013-03-09 05:02:00,
2013-03-08 23:12:00,51.0,45.0,29.91,SSE,153,8.0,14.0,81,0.00,,,0.00,,2013-03-09 05:12:00,
2013-03-08 23:22:00,51.0,45.0,29.90,SSE,147,8.0,15.0,79,0.00,,,0.00,,2013-03-09 05:22:00,
2013-03-08 23:31:00,51.0,44.0,29.89,SSE,152,9.0,14.0,78,0.00,,,0.00,,2013-03-09 05:31:00,
2013-03-08 23:42:00,51.0,44.0,29.89,SSE,152,9.0,14.0,78,0.00,,,0.00,,2013-03-09 05:42:00,
2013-03-08 23:53:00,52.0,44.0,29.88,SSE,157,11.0,16.0,75,0.00,,,0.00,,2013-03-09 05:53:00,